sensor_id;sensor_type;location;lat;lon;timestamp;P1;durP1;ratioP1;P2;durP2;ratioP2
33987;SDS011;37428;53.580;-1.666;2022-08-14T00:01:22;12.27;;;7.35;;
33987;SDS011;37428;53.580;-1.666;2022-08-14T00:04:26;8.90;;;7.60;;
33987;SDS011;37428;53.580;-1.666;2022-08-14T00:07:39;11.32;;;6.93;;
33987;SDS011;37428;53.580;-1.666;2022-08-14T00:10:49;8.10;;;7.30;;
33987;SDS011;37428;53.580;-1.666;2022-08-14T00:13:51;12.57;;;7.45;;
33987;SDS011;37428;53.580;-1.666;2022-08-14T00:16:53;12.57;;;7.30;;
33987;SDS011;37428;53.580;-1.666;2022-08-14T00:19:57;9.52;;;7.43;;
33987;SDS011;37428;53.580;-1.666;2022-08-14T00:23:03;9.20;;;7.45;;
33987;SDS011;37428;53.580;-1.666;2022-08-14T00:29:30;12.60;;;9.63;;
33987;SDS011;37428;53.580;-1.666;2022-08-14T00:32:45;11.35;;;8.05;;
33987;SDS011;37428;53.580;-1.666;2022-08-14T00:35:55;11.30;;;8.70;;
33987;SDS011;37428;53.580;-1.666;2022-08-14T00:39:17;12.38;;;8.27;;
33987;SDS011;37428;53.580;-1.666;2022-08-14T00:42:35;13.63;;;9.00;;
33987;SDS011;37428;53.580;-1.666;2022-08-14T00:45:39;13.38;;;8.20;;
33987;SDS011;37428;53.580;-1.666;2022-08-14T00:48:55;11.48;;;9.15;;
33987;SDS011;37428;53.580;-1.666;2022-08-14T00:52:11;10.50;;;8.93;;
33987;SDS011;37428;53.580;-1.666;2022-08-14T00:55:24;11.68;;;9.55;;
33987;SDS011;37428;53.580;-1.666;2022-08-14T00:58:48;9.80;;;8.80;;
33987;SDS011;37428;53.580;-1.666;2022-08-14T01:01:52;12.35;;;9.48;;
33987;SDS011;37428;53.580;-1.666;2022-08-14T01:04:57;9.50;;;8.60;;
33987;SDS011;37428;53.580;-1.666;2022-08-14T01:08:04;12.68;;;9.57;;
33987;SDS011;37428;53.580;-1.666;2022-08-14T01:11:06;10.75;;;9.27;;
33987;SDS011;37428;53.580;-1.666;2022-08-14T01:14:13;13.18;;;9.77;;
33987;SDS011;37428;53.580;-1.666;2022-08-14T01:17:23;12.85;;;11.70;;
33987;SDS011;37428;53.580;-1.666;2022-08-14T01:20:47;12.10;;;10.70;;
33987;SDS011;37428;53.580;-1.666;2022-08-14T01:24:08;11.93;;;10.75;;
33987;SDS011;37428;53.580;-1.666;2022-08-14T01:27:16;15.77;;;12.02;;
33987;SDS011;37428;53.580;-1.666;2022-08-14T01:30:28;13.85;;;12.45;;
33987;SDS011;37428;53.580;-1.666;2022-08-14T01:33:31;13.95;;;12.40;;
33987;SDS011;37428;53.580;-1.666;2022-08-14T01:36:45;17.58;;;12.98;;
33987;SDS011;37428;53.580;-1.666;2022-08-14T01:39:52;13.70;;;12.35;;
33987;SDS011;37428;53.580;-1.666;2022-08-14T01:42:57;16.70;;;12.63;;
33987;SDS011;37428;53.580;-1.666;2022-08-14T01:46:00;18.10;;;13.40;;
33987;SDS011;37428;53.580;-1.666;2022-08-14T01:49:03;17.20;;;14.32;;
33987;SDS011;37428;53.580;-1.666;2022-08-14T01:52:08;19.98;;;14.93;;
33987;SDS011;37428;53.580;-1.666;2022-08-14T01:55:14;18.23;;;13.93;;
33987;SDS011;37428;53.580;-1.666;2022-08-14T01:58:22;15.82;;;14.23;;
33987;SDS011;37428;53.580;-1.666;2022-08-14T02:01:34;21.25;;;15.38;;
33987;SDS011;37428;53.580;-1.666;2022-08-14T02:04:38;20.35;;;15.30;;
33987;SDS011;37428;53.580;-1.666;2022-08-14T02:07:40;18.52;;;14.82;;
33987;SDS011;37428;53.580;-1.666;2022-08-14T02:10:51;18.13;;;14.55;;
33987;SDS011;37428;53.580;-1.666;2022-08-14T02:14:15;18.08;;;14.18;;
33987;SDS011;37428;53.580;-1.666;2022-08-14T02:17:33;18.95;;;13.95;;
33987;SDS011;37428;53.580;-1.666;2022-08-14T02:20:36;16.10;;;14.40;;
33987;SDS011;37428;53.580;-1.666;2022-08-14T02:23:42;15.52;;;13.90;;
33987;SDS011;37428;53.580;-1.666;2022-08-14T02:26:50;15.88;;;14.25;;
33987;SDS011;37428;53.580;-1.666;2022-08-14T02:29:55;19.00;;;15.27;;
33987;SDS011;37428;53.580;-1.666;2022-08-14T02:32:57;15.73;;;14.02;;
33987;SDS011;37428;53.580;-1.666;2022-08-14T02:36:24;18.98;;;14.85;;
33987;SDS011;37428;53.580;-1.666;2022-08-14T02:39:26;19.63;;;15.27;;
33987;SDS011;37428;53.580;-1.666;2022-08-14T02:42:32;17.35;;;15.40;;
33987;SDS011;37428;53.580;-1.666;2022-08-14T02:45:36;16.17;;;14.65;;
33987;SDS011;37428;53.580;-1.666;2022-08-14T02:48:40;16.30;;;14.05;;
33987;SDS011;37428;53.580;-1.666;2022-08-14T02:52:00;17.92;;;16.20;;
33987;SDS011;37428;53.580;-1.666;2022-08-14T02:55:03;16.00;;;13.75;;
33987;SDS011;37428;53.580;-1.666;2022-08-14T02:58:08;14.13;;;12.70;;
33987;SDS011;37428;53.580;-1.666;2022-08-14T03:01:14;16.35;;;14.30;;
33987;SDS011;37428;53.580;-1.666;2022-08-14T03:04:19;20.75;;;15.38;;
33987;SDS011;37428;53.580;-1.666;2022-08-14T03:07:22;16.05;;;14.45;;
33987;SDS011;37428;53.580;-1.666;2022-08-14T03:10:26;21.70;;;14.90;;
33987;SDS011;37428;53.580;-1.666;2022-08-14T03:13:31;17.00;;;14.38;;
33987;SDS011;37428;53.580;-1.666;2022-08-14T03:16:34;16.27;;;14.60;;
33987;SDS011;37428;53.580;-1.666;2022-08-14T03:19:39;18.75;;;16.83;;
33987;SDS011;37428;53.580;-1.666;2022-08-14T03:23:01;16.27;;;14.70;;
33987;SDS011;37428;53.580;-1.666;2022-08-14T03:26:06;19.58;;;15.23;;
33987;SDS011;37428;53.580;-1.666;2022-08-14T03:29:31;16.55;;;14.95;;
33987;SDS011;37428;53.580;-1.666;2022-08-14T03:32:48;16.95;;;15.00;;
33987;SDS011;37428;53.580;-1.666;2022-08-14T03:35:52;15.98;;;14.57;;
33987;SDS011;37428;53.580;-1.666;2022-08-14T03:39:01;16.23;;;14.75;;
33987;SDS011;37428;53.580;-1.666;2022-08-14T03:42:08;15.63;;;13.95;;
33987;SDS011;37428;53.580;-1.666;2022-08-14T03:45:13;16.95;;;15.32;;
33987;SDS011;37428;53.580;-1.666;2022-08-14T03:48:17;14.30;;;13.05;;
33987;SDS011;37428;53.580;-1.666;2022-08-14T03:51:25;15.63;;;14.20;;
33987;SDS011;37428;53.580;-1.666;2022-08-14T03:54:30;15.95;;;14.48;;
33987;SDS011;37428;53.580;-1.666;2022-08-14T03:57:38;16.13;;;14.73;;
33987;SDS011;37428;53.580;-1.666;2022-08-14T04:00:48;17.20;;;15.40;;
33987;SDS011;37428;53.580;-1.666;2022-08-14T04:03:51;20.77;;;16.20;;
33987;SDS011;37428;53.580;-1.666;2022-08-14T04:07:03;17.52;;;15.82;;
33987;SDS011;37428;53.580;-1.666;2022-08-14T04:10:08;18.05;;;16.25;;
33987;SDS011;37428;53.580;-1.666;2022-08-14T04:13:12;15.68;;;14.18;;
33987;SDS011;37428;53.580;-1.666;2022-08-14T04:16:27;18.65;;;16.90;;
33987;SDS011;37428;53.580;-1.666;2022-08-14T04:19:34;16.65;;;14.88;;
33987;SDS011;37428;53.580;-1.666;2022-08-14T04:22:43;17.98;;;16.23;;
33987;SDS011;37428;53.580;-1.666;2022-08-14T04:25:55;20.08;;;18.27;;
33987;SDS011;37428;53.580;-1.666;2022-08-14T04:28:58;18.88;;;17.17;;
33987;SDS011;37428;53.580;-1.666;2022-08-14T04:32:11;17.92;;;16.40;;
33987;SDS011;37428;53.580;-1.666;2022-08-14T04:35:14;20.13;;;18.20;;
33987;SDS011;37428;53.580;-1.666;2022-08-14T04:38:20;22.35;;;17.90;;
33987;SDS011;37428;53.580;-1.666;2022-08-14T04:45:44;24.08;;;21.45;;
33987;SDS011;37428;53.580;-1.666;2022-08-14T04:48:50;20.27;;;18.30;;
33987;SDS011;37428;53.580;-1.666;2022-08-14T04:51:52;20.90;;;18.90;;
33987;SDS011;37428;53.580;-1.666;2022-08-14T04:55:11;24.60;;;22.13;;
33987;SDS011;37428;53.580;-1.666;2022-08-14T04:58:35;25.08;;;22.30;;
33987;SDS011;37428;53.580;-1.666;2022-08-14T05:01:47;26.27;;;23.40;;
33987;SDS011;37428;53.580;-1.666;2022-08-14T05:04:54;26.50;;;21.55;;
33987;SDS011;37428;53.580;-1.666;2022-08-14T05:08:02;23.92;;;21.60;;
33987;SDS011;37428;53.580;-1.666;2022-08-14T05:11:13;24.80;;;20.92;;
33987;SDS011;37428;53.580;-1.666;2022-08-14T05:14:18;23.42;;;20.17;;
33987;SDS011;37428;53.580;-1.666;2022-08-14T05:17:21;23.63;;;21.15;;
33987;SDS011;37428;53.580;-1.666;2022-08-14T05:20:37;22.92;;;20.52;;
33987;SDS011;37428;53.580;-1.666;2022-08-14T05:23:43;23.02;;;20.85;;
33987;SDS011;37428;53.580;-1.666;2022-08-14T05:26:48;24.15;;;21.50;;
33987;SDS011;37428;53.580;-1.666;2022-08-14T05:29:53;23.42;;;20.98;;
33987;SDS011;37428;53.580;-1.666;2022-08-14T05:33:10;23.10;;;20.75;;
33987;SDS011;37428;53.580;-1.666;2022-08-14T05:36:18;26.95;;;23.45;;
33987;SDS011;37428;53.580;-1.666;2022-08-14T05:39:21;24.85;;;21.08;;
33987;SDS011;37428;53.580;-1.666;2022-08-14T05:42:29;26.88;;;23.98;;
33987;SDS011;37428;53.580;-1.666;2022-08-14T05:45:31;27.35;;;24.52;;
33987;SDS011;37428;53.580;-1.666;2022-08-14T05:48:55;28.35;;;25.40;;
33987;SDS011;37428;53.580;-1.666;2022-08-14T05:51:59;32.33;;;28.25;;
33987;SDS011;37428;53.580;-1.666;2022-08-14T05:55:01;40.00;;;31.55;;
33987;SDS011;37428;53.580;-1.666;2022-08-14T05:58:09;39.15;;;31.33;;
33987;SDS011;37428;53.580;-1.666;2022-08-14T06:01:14;40.08;;;34.35;;
33987;SDS011;37428;53.580;-1.666;2022-08-14T06:04:16;42.80;;;32.35;;
33987;SDS011;37428;53.580;-1.666;2022-08-14T06:07:26;44.28;;;35.58;;
33987;SDS011;37428;53.580;-1.666;2022-08-14T06:10:42;44.35;;;34.42;;
33987;SDS011;37428;53.580;-1.666;2022-08-14T06:13:47;43.35;;;36.72;;
33987;SDS011;37428;53.580;-1.666;2022-08-14T06:16:50;45.78;;;35.85;;
33987;SDS011;37428;53.580;-1.666;2022-08-14T06:19:54;50.85;;;39.97;;
33987;SDS011;37428;53.580;-1.666;2022-08-14T06:23:07;40.75;;;34.88;;
33987;SDS011;37428;53.580;-1.666;2022-08-14T06:26:29;43.40;;;35.75;;
33987;SDS011;37428;53.580;-1.666;2022-08-14T06:30:00;44.72;;;34.72;;
33987;SDS011;37428;53.580;-1.666;2022-08-14T06:33:04;35.83;;;31.92;;
33987;SDS011;37428;53.580;-1.666;2022-08-14T06:36:18;41.13;;;33.72;;
33987;SDS011;37428;53.580;-1.666;2022-08-14T06:39:44;40.33;;;33.67;;
33987;SDS011;37428;53.580;-1.666;2022-08-14T06:42:49;41.13;;;31.27;;
33987;SDS011;37428;53.580;-1.666;2022-08-14T06:45:52;39.28;;;34.97;;
33987;SDS011;37428;53.580;-1.666;2022-08-14T06:49:01;39.47;;;35.33;;
33987;SDS011;37428;53.580;-1.666;2022-08-14T06:52:04;46.97;;;37.15;;
33987;SDS011;37428;53.580;-1.666;2022-08-14T06:55:10;41.10;;;36.63;;
33987;SDS011;37428;53.580;-1.666;2022-08-14T06:58:16;38.17;;;34.05;;
33987;SDS011;37428;53.580;-1.666;2022-08-14T07:01:26;39.67;;;35.55;;
33987;SDS011;37428;53.580;-1.666;2022-08-14T07:05:13;41.13;;;34.30;;
33987;SDS011;37428;53.580;-1.666;2022-08-14T07:08:46;48.60;;;39.15;;
33987;SDS011;37428;53.580;-1.666;2022-08-14T07:11:56;48.25;;;39.03;;
33987;SDS011;37428;53.580;-1.666;2022-08-14T07:15:26;45.40;;;37.97;;
33987;SDS011;37428;53.580;-1.666;2022-08-14T07:18:29;42.70;;;34.70;;
33987;SDS011;37428;53.580;-1.666;2022-08-14T07:21:36;37.05;;;31.77;;
33987;SDS011;37428;53.580;-1.666;2022-08-14T07:24:41;35.20;;;31.05;;
33987;SDS011;37428;53.580;-1.666;2022-08-14T07:27:46;37.42;;;33.35;;
33987;SDS011;37428;53.580;-1.666;2022-08-14T07:30:48;43.53;;;34.40;;
33987;SDS011;37428;53.580;-1.666;2022-08-14T07:33:51;37.60;;;32.88;;
33987;SDS011;37428;53.580;-1.666;2022-08-14T07:36:56;32.50;;;29.05;;
33987;SDS011;37428;53.580;-1.666;2022-08-14T07:40:03;31.35;;;28.17;;
33987;SDS011;37428;53.580;-1.666;2022-08-14T07:43:10;31.30;;;27.98;;
33987;SDS011;37428;53.580;-1.666;2022-08-14T07:46:12;32.03;;;27.45;;
33987;SDS011;37428;53.580;-1.666;2022-08-14T07:49:16;30.42;;;27.15;;
33987;SDS011;37428;53.580;-1.666;2022-08-14T07:52:23;32.67;;;27.08;;
33987;SDS011;37428;53.580;-1.666;2022-08-14T07:55:27;30.35;;;25.90;;
33987;SDS011;37428;53.580;-1.666;2022-08-14T07:58:30;30.02;;;26.90;;
33987;SDS011;37428;53.580;-1.666;2022-08-14T08:01:33;29.40;;;26.23;;
33987;SDS011;37428;53.580;-1.666;2022-08-14T08:04:38;26.48;;;23.88;;
33987;SDS011;37428;53.580;-1.666;2022-08-14T08:07:45;28.55;;;25.40;;
33987;SDS011;37428;53.580;-1.666;2022-08-14T08:10:48;26.73;;;24.08;;
33987;SDS011;37428;53.580;-1.666;2022-08-14T08:13:55;29.20;;;23.15;;
33987;SDS011;37428;53.580;-1.666;2022-08-14T08:17:00;29.98;;;26.60;;
33987;SDS011;37428;53.580;-1.666;2022-08-14T08:20:02;22.50;;;20.30;;
33987;SDS011;37428;53.580;-1.666;2022-08-14T08:23:06;25.38;;;20.15;;
33987;SDS011;37428;53.580;-1.666;2022-08-14T08:26:10;25.23;;;22.52;;
33987;SDS011;37428;53.580;-1.666;2022-08-14T08:29:19;22.92;;;20.70;;
33987;SDS011;37428;53.580;-1.666;2022-08-14T08:32:22;22.85;;;19.35;;
33987;SDS011;37428;53.580;-1.666;2022-08-14T08:35:25;21.90;;;19.77;;
33987;SDS011;37428;53.580;-1.666;2022-08-14T08:38:28;23.15;;;18.63;;
33987;SDS011;37428;53.580;-1.666;2022-08-14T08:44:40;20.75;;;18.55;;
33987;SDS011;37428;53.580;-1.666;2022-08-14T08:47:43;20.15;;;17.92;;
33987;SDS011;37428;53.580;-1.666;2022-08-14T08:50:47;20.08;;;18.02;;
33987;SDS011;37428;53.580;-1.666;2022-08-14T08:53:56;20.50;;;18.30;;
33987;SDS011;37428;53.580;-1.666;2022-08-14T08:56:59;20.60;;;18.55;;
33987;SDS011;37428;53.580;-1.666;2022-08-14T09:00:12;19.63;;;16.33;;
33987;SDS011;37428;53.580;-1.666;2022-08-14T09:03:21;20.35;;;16.20;;
33987;SDS011;37428;53.580;-1.666;2022-08-14T09:06:24;21.30;;;17.00;;
33987;SDS011;37428;53.580;-1.666;2022-08-14T09:12:31;17.20;;;15.80;;
33987;SDS011;37428;53.580;-1.666;2022-08-14T09:15:35;16.83;;;14.82;;
33987;SDS011;37428;53.580;-1.666;2022-08-14T09:18:38;16.45;;;14.95;;
33987;SDS011;37428;53.580;-1.666;2022-08-14T09:21:55;16.65;;;14.95;;
33987;SDS011;37428;53.580;-1.666;2022-08-14T09:24:58;17.10;;;14.52;;
33987;SDS011;37428;53.580;-1.666;2022-08-14T09:28:01;14.27;;;12.88;;
33987;SDS011;37428;53.580;-1.666;2022-08-14T09:31:06;15.48;;;13.90;;
33987;SDS011;37428;53.580;-1.666;2022-08-14T09:34:13;17.02;;;15.40;;
33987;SDS011;37428;53.580;-1.666;2022-08-14T09:37:27;19.05;;;15.50;;
33987;SDS011;37428;53.580;-1.666;2022-08-14T09:40:41;16.35;;;14.75;;
33987;SDS011;37428;53.580;-1.666;2022-08-14T09:43:58;17.65;;;16.02;;
33987;SDS011;37428;53.580;-1.666;2022-08-14T09:47:07;18.13;;;16.33;;
33987;SDS011;37428;53.580;-1.666;2022-08-14T09:50:19;18.85;;;16.90;;
33987;SDS011;37428;53.580;-1.666;2022-08-14T09:53:36;18.15;;;15.25;;
33987;SDS011;37428;53.580;-1.666;2022-08-14T09:56:45;21.45;;;19.23;;
33987;SDS011;37428;53.580;-1.666;2022-08-14T09:59:48;21.90;;;18.23;;
33987;SDS011;37428;53.580;-1.666;2022-08-14T10:02:54;19.85;;;17.70;;
33987;SDS011;37428;53.580;-1.666;2022-08-14T10:06:03;21.35;;;19.15;;
33987;SDS011;37428;53.580;-1.666;2022-08-14T10:09:07;20.65;;;17.05;;
33987;SDS011;37428;53.580;-1.666;2022-08-14T10:12:10;19.15;;;15.43;;
33987;SDS011;37428;53.580;-1.666;2022-08-14T10:18:25;11.35;;;10.15;;
33987;SDS011;37428;53.580;-1.666;2022-08-14T10:21:28;12.52;;;11.15;;
33987;SDS011;37428;53.580;-1.666;2022-08-14T10:24:31;15.38;;;10.57;;
33987;SDS011;37428;53.580;-1.666;2022-08-14T10:27:39;9.60;;;7.60;;
33987;SDS011;37428;53.580;-1.666;2022-08-14T10:30:43;10.95;;;8.77;;
33987;SDS011;37428;53.580;-1.666;2022-08-14T10:34:00;8.90;;;8.02;;
33987;SDS011;37428;53.580;-1.666;2022-08-14T10:37:04;8.80;;;7.95;;
33987;SDS011;37428;53.580;-1.666;2022-08-14T10:40:08;9.38;;;8.15;;
33987;SDS011;37428;53.580;-1.666;2022-08-14T10:43:16;8.90;;;8.10;;
33987;SDS011;37428;53.580;-1.666;2022-08-14T10:46:19;13.43;;;9.55;;
33987;SDS011;37428;53.580;-1.666;2022-08-14T10:52:26;8.80;;;7.95;;
33987;SDS011;37428;53.580;-1.666;2022-08-14T10:55:31;12.18;;;9.35;;
33987;SDS011;37428;53.580;-1.666;2022-08-14T10:58:38;11.52;;;9.70;;
33987;SDS011;37428;53.580;-1.666;2022-08-14T11:01:41;10.50;;;8.57;;
33987;SDS011;37428;53.580;-1.666;2022-08-14T11:04:45;11.68;;;10.48;;
33987;SDS011;37428;53.580;-1.666;2022-08-14T11:07:58;17.02;;;9.18;;
33987;SDS011;37428;53.580;-1.666;2022-08-14T11:11:02;10.65;;;8.93;;
33987;SDS011;37428;53.580;-1.666;2022-08-14T11:14:06;9.57;;;8.73;;
33987;SDS011;37428;53.580;-1.666;2022-08-14T11:17:08;8.75;;;7.95;;
33987;SDS011;37428;53.580;-1.666;2022-08-14T11:20:13;8.98;;;8.07;;
33987;SDS011;37428;53.580;-1.666;2022-08-14T11:23:16;9.55;;;8.52;;
33987;SDS011;37428;53.580;-1.666;2022-08-14T11:26:21;8.77;;;7.63;;
33987;SDS011;37428;53.580;-1.666;2022-08-14T11:29:27;10.85;;;8.13;;
33987;SDS011;37428;53.580;-1.666;2022-08-14T11:32:30;8.80;;;8.02;;
33987;SDS011;37428;53.580;-1.666;2022-08-14T11:35:34;8.52;;;6.13;;
33987;SDS011;37428;53.580;-1.666;2022-08-14T11:38:38;5.93;;;5.43;;
33987;SDS011;37428;53.580;-1.666;2022-08-14T11:41:41;7.22;;;5.47;;
33987;SDS011;37428;53.580;-1.666;2022-08-14T11:44:45;5.55;;;5.00;;
33987;SDS011;37428;53.580;-1.666;2022-08-14T11:47:48;7.20;;;4.15;;
33987;SDS011;37428;53.580;-1.666;2022-08-14T11:50:53;5.25;;;4.75;;
33987;SDS011;37428;53.580;-1.666;2022-08-14T11:53:58;10.45;;;4.65;;
33987;SDS011;37428;53.580;-1.666;2022-08-14T11:57:03;5.97;;;4.18;;
33987;SDS011;37428;53.580;-1.666;2022-08-14T12:00:06;4.07;;;3.70;;
33987;SDS011;37428;53.580;-1.666;2022-08-14T12:03:10;3.80;;;2.75;;
33987;SDS011;37428;53.580;-1.666;2022-08-14T12:06:15;3.38;;;2.83;;
33987;SDS011;37428;53.580;-1.666;2022-08-14T12:09:28;7.43;;;3.40;;
33987;SDS011;37428;53.580;-1.666;2022-08-14T12:12:31;3.60;;;3.30;;
33987;SDS011;37428;53.580;-1.666;2022-08-14T12:15:33;4.30;;;3.90;;
33987;SDS011;37428;53.580;-1.666;2022-08-14T12:18:37;5.07;;;3.78;;
33987;SDS011;37428;53.580;-1.666;2022-08-14T12:21:42;4.88;;;3.35;;
33987;SDS011;37428;53.580;-1.666;2022-08-14T12:24:50;3.58;;;3.22;;
33987;SDS011;37428;53.580;-1.666;2022-08-14T12:27:53;4.40;;;3.40;;
33987;SDS011;37428;53.580;-1.666;2022-08-14T12:30:56;3.47;;;3.17;;
33987;SDS011;37428;53.580;-1.666;2022-08-14T12:33:59;5.55;;;3.42;;
33987;SDS011;37428;53.580;-1.666;2022-08-14T12:37:05;4.63;;;3.55;;
33987;SDS011;37428;53.580;-1.666;2022-08-14T12:40:09;6.70;;;3.42;;
33987;SDS011;37428;53.580;-1.666;2022-08-14T12:43:13;4.43;;;2.85;;
33987;SDS011;37428;53.580;-1.666;2022-08-14T12:46:21;2.50;;;2.30;;
33987;SDS011;37428;53.580;-1.666;2022-08-14T12:49:25;6.72;;;2.92;;
33987;SDS011;37428;53.580;-1.666;2022-08-14T12:52:31;3.88;;;3.55;;
33987;SDS011;37428;53.580;-1.666;2022-08-14T13:03:23;4.07;;;3.17;;
33987;SDS011;37428;53.580;-1.666;2022-08-14T13:06:09;5.53;;;3.20;;
33987;SDS011;37428;53.580;-1.666;2022-08-14T13:09:16;4.13;;;3.83;;
33987;SDS011;37428;53.580;-1.666;2022-08-14T13:12:44;2.88;;;2.67;;
33987;SDS011;37428;53.580;-1.666;2022-08-14T13:20:01;4.18;;;3.80;;
33987;SDS011;37428;53.580;-1.666;2022-08-14T13:23:19;4.40;;;4.10;;
33987;SDS011;37428;53.580;-1.666;2022-08-14T13:26:36;5.15;;;4.20;;
33987;SDS011;37428;53.580;-1.666;2022-08-14T13:30:07;4.10;;;3.70;;
33987;SDS011;37428;53.580;-1.666;2022-08-14T13:33:36;9.75;;;4.70;;
33987;SDS011;37428;53.580;-1.666;2022-08-14T13:37:04;3.80;;;3.50;;
33987;SDS011;37428;53.580;-1.666;2022-08-14T13:47:44;4.65;;;4.10;;
33987;SDS011;37428;53.580;-1.666;2022-08-14T13:50:54;3.92;;;3.63;;
33987;SDS011;37428;53.580;-1.666;2022-08-14T13:54:00;7.35;;;4.18;;
33987;SDS011;37428;53.580;-1.666;2022-08-14T13:57:08;4.93;;;3.75;;
33987;SDS011;37428;53.580;-1.666;2022-08-14T14:00:44;4.47;;;3.78;;
33987;SDS011;37428;53.580;-1.666;2022-08-14T14:07:56;7.63;;;4.28;;
33987;SDS011;37428;53.580;-1.666;2022-08-14T14:11:20;6.10;;;3.45;;
33987;SDS011;37428;53.580;-1.666;2022-08-14T14:14:25;6.90;;;4.05;;
33987;SDS011;37428;53.580;-1.666;2022-08-14T14:17:29;6.10;;;4.10;;
33987;SDS011;37428;53.580;-1.666;2022-08-14T14:20:32;5.60;;;3.28;;
33987;SDS011;37428;53.580;-1.666;2022-08-14T14:24:18;5.68;;;4.40;;
33987;SDS011;37428;53.580;-1.666;2022-08-14T14:27:14;7.13;;;4.03;;
33987;SDS011;37428;53.580;-1.666;2022-08-14T14:30:47;6.05;;;4.25;;
33987;SDS011;37428;53.580;-1.666;2022-08-14T14:40:49;5.57;;;3.63;;
33987;SDS011;37428;53.580;-1.666;2022-08-14T14:43:53;6.32;;;3.70;;
33987;SDS011;37428;53.580;-1.666;2022-08-14T14:47:12;3.97;;;3.28;;
33987;SDS011;37428;53.580;-1.666;2022-08-14T14:50:48;3.80;;;3.47;;
33987;SDS011;37428;53.580;-1.666;2022-08-14T14:53:53;8.00;;;3.42;;
33987;SDS011;37428;53.580;-1.666;2022-08-14T14:57:06;7.70;;;4.18;;
33987;SDS011;37428;53.580;-1.666;2022-08-14T15:00:26;5.43;;;4.93;;
33987;SDS011;37428;53.580;-1.666;2022-08-14T15:10:21;5.85;;;3.72;;
33987;SDS011;37428;53.580;-1.666;2022-08-14T15:13:30;6.05;;;3.53;;
33987;SDS011;37428;53.580;-1.666;2022-08-14T15:16:50;4.30;;;3.78;;
33987;SDS011;37428;53.580;-1.666;2022-08-14T15:19:54;5.10;;;3.53;;
33987;SDS011;37428;53.580;-1.666;2022-08-14T15:23:35;8.60;;;3.95;;
33987;SDS011;37428;53.580;-1.666;2022-08-14T15:26:43;5.75;;;3.75;;
33987;SDS011;37428;53.580;-1.666;2022-08-14T15:29:46;6.75;;;3.72;;
33987;SDS011;37428;53.580;-1.666;2022-08-14T15:32:48;4.00;;;3.60;;
33987;SDS011;37428;53.580;-1.666;2022-08-14T15:35:52;8.15;;;3.63;;
33987;SDS011;37428;53.580;-1.666;2022-08-14T15:38:55;4.38;;;3.60;;
33987;SDS011;37428;53.580;-1.666;2022-08-14T15:41:59;3.65;;;3.33;;
33987;SDS011;37428;53.580;-1.666;2022-08-14T15:45:07;3.47;;;2.90;;
33987;SDS011;37428;53.580;-1.666;2022-08-14T15:48:18;4.93;;;3.22;;
33987;SDS011;37428;53.580;-1.666;2022-08-14T15:51:41;6.30;;;3.00;;
33987;SDS011;37428;53.580;-1.666;2022-08-14T15:54:45;4.35;;;3.20;;
33987;SDS011;37428;53.580;-1.666;2022-08-14T15:57:51;5.78;;;3.50;;
33987;SDS011;37428;53.580;-1.666;2022-08-14T16:01:00;6.28;;;4.05;;
33987;SDS011;37428;53.580;-1.666;2022-08-14T16:04:22;4.88;;;4.38;;
33987;SDS011;37428;53.580;-1.666;2022-08-14T16:07:26;4.55;;;3.20;;
33987;SDS011;37428;53.580;-1.666;2022-08-14T16:10:42;3.55;;;3.25;;
33987;SDS011;37428;53.580;-1.666;2022-08-14T16:14:09;4.38;;;3.53;;
33987;SDS011;37428;53.580;-1.666;2022-08-14T16:20:55;7.88;;;3.53;;
33987;SDS011;37428;53.580;-1.666;2022-08-14T16:24:20;4.18;;;3.42;;
33987;SDS011;37428;53.580;-1.666;2022-08-14T16:27:33;7.10;;;3.40;;
33987;SDS011;37428;53.580;-1.666;2022-08-14T16:30:41;5.97;;;3.55;;
33987;SDS011;37428;53.580;-1.666;2022-08-14T16:33:45;4.40;;;3.20;;
33987;SDS011;37428;53.580;-1.666;2022-08-14T16:36:47;7.15;;;3.35;;
33987;SDS011;37428;53.580;-1.666;2022-08-14T16:39:52;6.55;;;3.55;;
33987;SDS011;37428;53.580;-1.666;2022-08-14T16:43:01;4.47;;;3.53;;
33987;SDS011;37428;53.580;-1.666;2022-08-14T16:46:06;3.88;;;3.50;;
33987;SDS011;37428;53.580;-1.666;2022-08-14T16:49:13;4.18;;;3.72;;
33987;SDS011;37428;53.580;-1.666;2022-08-14T16:52:48;5.90;;;3.22;;
33987;SDS011;37428;53.580;-1.666;2022-08-14T16:56:26;5.32;;;3.53;;
33987;SDS011;37428;53.580;-1.666;2022-08-14T17:00:10;3.42;;;3.13;;
33987;SDS011;37428;53.580;-1.666;2022-08-14T17:06:45;3.25;;;2.80;;
33987;SDS011;37428;53.580;-1.666;2022-08-14T17:10:01;5.20;;;3.00;;
33987;SDS011;37428;53.580;-1.666;2022-08-14T17:13:30;5.05;;;3.20;;
33987;SDS011;37428;53.580;-1.666;2022-08-14T17:16:45;2.88;;;2.67;;
33987;SDS011;37428;53.580;-1.666;2022-08-14T17:20:32;3.63;;;3.33;;
33987;SDS011;37428;53.580;-1.666;2022-08-14T17:26:54;9.98;;;3.40;;
33987;SDS011;37428;53.580;-1.666;2022-08-14T17:30:29;5.00;;;3.40;;
33987;SDS011;37428;53.580;-1.666;2022-08-14T17:34:19;3.50;;;3.20;;
33987;SDS011;37428;53.580;-1.666;2022-08-14T17:37:25;3.70;;;3.40;;
33987;SDS011;37428;53.580;-1.666;2022-08-14T17:40:53;3.95;;;3.55;;
33987;SDS011;37428;53.580;-1.666;2022-08-14T17:44:18;4.57;;;3.10;;
33987;SDS011;37428;53.580;-1.666;2022-08-14T17:47:25;3.58;;;3.25;;
33987;SDS011;37428;53.580;-1.666;2022-08-14T17:50:44;4.78;;;3.17;;
33987;SDS011;37428;53.580;-1.666;2022-08-14T17:54:12;3.58;;;3.25;;
33987;SDS011;37428;53.580;-1.666;2022-08-14T17:57:32;6.78;;;4.20;;
33987;SDS011;37428;53.580;-1.666;2022-08-14T18:00:38;5.72;;;3.72;;
33987;SDS011;37428;53.580;-1.666;2022-08-14T18:07:40;9.45;;;4.15;;
33987;SDS011;37428;53.580;-1.666;2022-08-14T18:10:57;9.27;;;4.40;;
33987;SDS011;37428;53.580;-1.666;2022-08-14T18:14:03;4.82;;;3.50;;
33987;SDS011;37428;53.580;-1.666;2022-08-14T18:17:10;7.13;;;4.25;;
33987;SDS011;37428;53.580;-1.666;2022-08-14T18:20:17;6.03;;;3.38;;
33987;SDS011;37428;53.580;-1.666;2022-08-14T18:23:54;6.15;;;3.78;;
33987;SDS011;37428;53.580;-1.666;2022-08-14T18:27:10;7.05;;;3.58;;
33987;SDS011;37428;53.580;-1.666;2022-08-14T18:30:23;4.20;;;3.55;;
33987;SDS011;37428;53.580;-1.666;2022-08-14T18:33:55;5.78;;;3.70;;
33987;SDS011;37428;53.580;-1.666;2022-08-14T18:37:19;4.60;;;3.40;;
33987;SDS011;37428;53.580;-1.666;2022-08-14T18:48:23;6.55;;;4.00;;
33987;SDS011;37428;53.580;-1.666;2022-08-14T18:51:37;8.77;;;4.63;;
33987;SDS011;37428;53.580;-1.666;2022-08-14T18:54:42;4.70;;;3.20;;
33987;SDS011;37428;53.580;-1.666;2022-08-14T19:01:21;7.25;;;3.03;;
33987;SDS011;37428;53.580;-1.666;2022-08-14T19:14:47;3.45;;;2.30;;
33987;SDS011;37428;53.580;-1.666;2022-08-14T19:18:03;6.63;;;2.20;;
33987;SDS011;37428;53.580;-1.666;2022-08-14T19:21:29;3.17;;;2.30;;
33987;SDS011;37428;53.580;-1.666;2022-08-14T19:24:43;2.50;;;2.30;;
33987;SDS011;37428;53.580;-1.666;2022-08-14T19:28:19;2.83;;;2.50;;
33987;SDS011;37428;53.580;-1.666;2022-08-14T19:31:36;6.60;;;2.22;;
33987;SDS011;37428;53.580;-1.666;2022-08-14T19:34:43;7.28;;;2.10;;
33987;SDS011;37428;53.580;-1.666;2022-08-14T19:41:11;3.40;;;2.42;;
33987;SDS011;37428;53.580;-1.666;2022-08-14T19:44:15;4.80;;;2.53;;
33987;SDS011;37428;53.580;-1.666;2022-08-14T19:47:31;2.03;;;1.83;;
33987;SDS011;37428;53.580;-1.666;2022-08-14T19:50:36;3.92;;;1.92;;
33987;SDS011;37428;53.580;-1.666;2022-08-14T19:54:00;3.60;;;2.17;;
33987;SDS011;37428;53.580;-1.666;2022-08-14T19:57:14;10.85;;;3.28;;
33987;SDS011;37428;53.580;-1.666;2022-08-14T20:00:19;7.30;;;2.42;;
33987;SDS011;37428;53.580;-1.666;2022-08-14T20:03:24;2.53;;;2.22;;
33987;SDS011;37428;53.580;-1.666;2022-08-14T20:06:34;4.88;;;2.08;;